Delta Qualiflight

METAR

KFTW 072053Z AUTO 16011KT 10SM FEW029 SCT036 29/23 A2990 RMK AO2 SLP115 T02940233 58021

TAF

TAF KFTW 071743Z 0718/0818 17005KT P6SM SCT015 BKN080 TEMPO 0718/0719 BKN015 FM072000 15005KT P6SM VCTS BKN045CB FM080000 16005KT P6SM BKN100 FM081300 18006KT P6SM BKN035 FM081600 21007KT P6SM SCT250